sensor_id;sensor_type;location;lat;lon;timestamp;P1;durP1;ratioP1;P2;durP2;ratioP2
27728;SDS011;15126;42.186;24.340;2022-08-21T00:02:23;11.27;;;7.20;;
27728;SDS011;15126;42.186;24.340;2022-08-21T00:04:52;16.17;;;8.93;;
27728;SDS011;15126;42.186;24.340;2022-08-21T00:07:20;11.20;;;7.57;;
27728;SDS011;15126;42.186;24.340;2022-08-21T00:09:47;11.67;;;8.13;;
27728;SDS011;15126;42.186;24.340;2022-08-21T00:12:14;8.60;;;7.27;;
27728;SDS011;15126;42.186;24.340;2022-08-21T00:14:41;11.23;;;7.33;;
27728;SDS011;15126;42.186;24.340;2022-08-21T00:17:08;10.80;;;7.53;;
27728;SDS011;15126;42.186;24.340;2022-08-21T00:19:35;8.90;;;6.80;;
27728;SDS011;15126;42.186;24.340;2022-08-21T00:22:02;10.70;;;8.33;;
27728;SDS011;15126;42.186;24.340;2022-08-21T00:24:30;10.30;;;8.23;;
27728;SDS011;15126;42.186;24.340;2022-08-21T00:26:57;11.10;;;8.33;;
27728;SDS011;15126;42.186;24.340;2022-08-21T00:29:24;10.40;;;8.00;;
27728;SDS011;15126;42.186;24.340;2022-08-21T00:31:51;9.43;;;8.10;;
27728;SDS011;15126;42.186;24.340;2022-08-21T00:34:17;13.60;;;8.53;;
27728;SDS011;15126;42.186;24.340;2022-08-21T00:36:44;12.37;;;8.80;;
27728;SDS011;15126;42.186;24.340;2022-08-21T00:39:11;14.50;;;8.67;;
27728;SDS011;15126;42.186;24.340;2022-08-21T00:41:39;11.67;;;9.07;;
27728;SDS011;15126;42.186;24.340;2022-08-21T00:44:09;12.97;;;8.93;;
27728;SDS011;15126;42.186;24.340;2022-08-21T00:46:38;13.20;;;9.53;;
27728;SDS011;15126;42.186;24.340;2022-08-21T00:49:06;11.20;;;9.93;;
27728;SDS011;15126;42.186;24.340;2022-08-21T00:51:35;10.47;;;9.13;;
27728;SDS011;15126;42.186;24.340;2022-08-21T00:54:06;12.13;;;9.23;;
27728;SDS011;15126;42.186;24.340;2022-08-21T00:56:35;10.13;;;9.10;;
27728;SDS011;15126;42.186;24.340;2022-08-21T00:59:04;10.70;;;9.60;;
27728;SDS011;15126;42.186;24.340;2022-08-21T01:01:32;14.47;;;10.57;;
27728;SDS011;15126;42.186;24.340;2022-08-21T01:04:00;14.83;;;10.60;;
27728;SDS011;15126;42.186;24.340;2022-08-21T01:06:26;14.90;;;10.80;;
27728;SDS011;15126;42.186;24.340;2022-08-21T01:08:53;16.63;;;11.13;;
27728;SDS011;15126;42.186;24.340;2022-08-21T01:11:20;12.10;;;10.17;;
27728;SDS011;15126;42.186;24.340;2022-08-21T01:13:47;12.63;;;10.80;;
27728;SDS011;15126;42.186;24.340;2022-08-21T01:16:18;12.77;;;9.77;;
27728;SDS011;15126;42.186;24.340;2022-08-21T01:18:47;15.00;;;10.87;;
27728;SDS011;15126;42.186;24.340;2022-08-21T01:21:17;15.80;;;11.13;;
27728;SDS011;15126;42.186;24.340;2022-08-21T01:23:46;17.47;;;11.47;;
27728;SDS011;15126;42.186;24.340;2022-08-21T01:26:17;12.13;;;11.00;;
27728;SDS011;15126;42.186;24.340;2022-08-21T01:28:46;16.97;;;11.90;;
27728;SDS011;15126;42.186;24.340;2022-08-21T01:31:18;11.47;;;10.33;;
27728;SDS011;15126;42.186;24.340;2022-08-21T01:33:48;12.20;;;10.97;;
27728;SDS011;15126;42.186;24.340;2022-08-21T01:36:17;14.93;;;13.17;;
27728;SDS011;15126;42.186;24.340;2022-08-21T01:38:44;15.87;;;12.23;;
27728;SDS011;15126;42.186;24.340;2022-08-21T01:41:12;20.10;;;12.47;;
27728;SDS011;15126;42.186;24.340;2022-08-21T01:43:39;14.47;;;12.03;;
27728;SDS011;15126;42.186;24.340;2022-08-21T01:46:06;13.93;;;12.17;;
27728;SDS011;15126;42.186;24.340;2022-08-21T01:48:33;13.90;;;12.43;;
27728;SDS011;15126;42.186;24.340;2022-08-21T01:51:00;16.27;;;12.70;;
27728;SDS011;15126;42.186;24.340;2022-08-21T01:53:28;14.87;;;11.10;;
27728;SDS011;15126;42.186;24.340;2022-08-21T01:55:55;18.23;;;11.23;;
27728;SDS011;15126;42.186;24.340;2022-08-21T01:58:22;16.97;;;10.90;;
27728;SDS011;15126;42.186;24.340;2022-08-21T02:00:49;30.63;;;16.67;;
27728;SDS011;15126;42.186;24.340;2022-08-21T02:03:15;30.53;;;14.33;;
27728;SDS011;15126;42.186;24.340;2022-08-21T02:05:42;22.27;;;13.43;;
27728;SDS011;15126;42.186;24.340;2022-08-21T02:08:09;26.33;;;13.13;;
27728;SDS011;15126;42.186;24.340;2022-08-21T02:10:37;18.30;;;12.73;;
27728;SDS011;15126;42.186;24.340;2022-08-21T02:13:06;15.63;;;10.53;;
27728;SDS011;15126;42.186;24.340;2022-08-21T02:15:34;17.47;;;12.43;;
27728;SDS011;15126;42.186;24.340;2022-08-21T02:18:02;24.13;;;12.97;;
27728;SDS011;15126;42.186;24.340;2022-08-21T02:20:32;26.97;;;14.80;;
27728;SDS011;15126;42.186;24.340;2022-08-21T02:23:00;19.30;;;12.70;;
27728;SDS011;15126;42.186;24.340;2022-08-21T02:25:29;16.97;;;12.13;;
27728;SDS011;15126;42.186;24.340;2022-08-21T02:27:57;17.03;;;12.40;;
27728;SDS011;15126;42.186;24.340;2022-08-21T02:30:26;16.77;;;11.90;;
27728;SDS011;15126;42.186;24.340;2022-08-21T02:32:55;15.07;;;12.10;;
27728;SDS011;15126;42.186;24.340;2022-08-21T02:35:23;19.00;;;12.00;;
27728;SDS011;15126;42.186;24.340;2022-08-21T02:37:51;16.47;;;11.47;;
27728;SDS011;15126;42.186;24.340;2022-08-21T02:40:21;20.17;;;12.00;;
27728;SDS011;15126;42.186;24.340;2022-08-21T02:42:51;19.17;;;11.20;;
27728;SDS011;15126;42.186;24.340;2022-08-21T02:45:19;15.93;;;10.80;;
27728;SDS011;15126;42.186;24.340;2022-08-21T02:47:47;18.30;;;12.27;;
27728;SDS011;15126;42.186;24.340;2022-08-21T02:50:16;17.57;;;11.77;;
27728;SDS011;15126;42.186;24.340;2022-08-21T02:52:45;17.83;;;11.73;;
27728;SDS011;15126;42.186;24.340;2022-08-21T02:55:12;15.53;;;11.63;;
27728;SDS011;15126;42.186;24.340;2022-08-21T02:57:39;22.17;;;12.10;;
27728;SDS011;15126;42.186;24.340;2022-08-21T03:00:06;15.87;;;11.80;;
27728;SDS011;15126;42.186;24.340;2022-08-21T03:02:37;16.40;;;11.23;;
27728;SDS011;15126;42.186;24.340;2022-08-21T03:05:04;14.37;;;11.93;;
27728;SDS011;15126;42.186;24.340;2022-08-21T03:07:31;18.50;;;12.27;;
27728;SDS011;15126;42.186;24.340;2022-08-21T03:09:58;19.33;;;12.00;;
27728;SDS011;15126;42.186;24.340;2022-08-21T03:12:25;17.93;;;11.90;;
27728;SDS011;15126;42.186;24.340;2022-08-21T03:14:52;16.63;;;11.63;;
27728;SDS011;15126;42.186;24.340;2022-08-21T03:17:19;19.10;;;11.37;;
27728;SDS011;15126;42.186;24.340;2022-08-21T03:19:47;14.70;;;11.33;;
27728;SDS011;15126;42.186;24.340;2022-08-21T03:22:14;13.00;;;11.60;;
27728;SDS011;15126;42.186;24.340;2022-08-21T03:24:41;14.57;;;10.83;;
27728;SDS011;15126;42.186;24.340;2022-08-21T03:27:07;13.53;;;12.10;;
27728;SDS011;15126;42.186;24.340;2022-08-21T03:29:34;13.43;;;11.53;;
27728;SDS011;15126;42.186;24.340;2022-08-21T03:32:01;16.97;;;11.80;;
27728;SDS011;15126;42.186;24.340;2022-08-21T03:34:28;13.60;;;12.03;;
27728;SDS011;15126;42.186;24.340;2022-08-21T03:36:57;16.03;;;12.77;;
27728;SDS011;15126;42.186;24.340;2022-08-21T03:39:23;14.97;;;10.47;;
27728;SDS011;15126;42.186;24.340;2022-08-21T03:41:50;17.60;;;11.73;;
27728;SDS011;15126;42.186;24.340;2022-08-21T03:44:18;15.83;;;12.50;;
27728;SDS011;15126;42.186;24.340;2022-08-21T03:46:44;15.03;;;12.03;;
27728;SDS011;15126;42.186;24.340;2022-08-21T03:49:11;12.07;;;10.67;;
27728;SDS011;15126;42.186;24.340;2022-08-21T03:51:38;14.60;;;11.90;;
27728;SDS011;15126;42.186;24.340;2022-08-21T03:54:06;15.07;;;11.83;;
27728;SDS011;15126;42.186;24.340;2022-08-21T03:56:33;16.07;;;12.33;;
27728;SDS011;15126;42.186;24.340;2022-08-21T03:59:00;14.03;;;12.60;;
27728;SDS011;15126;42.186;24.340;2022-08-21T04:01:27;16.90;;;12.23;;
27728;SDS011;15126;42.186;24.340;2022-08-21T04:03:54;18.90;;;12.63;;
27728;SDS011;15126;42.186;24.340;2022-08-21T04:06:21;16.53;;;13.60;;
27728;SDS011;15126;42.186;24.340;2022-08-21T04:08:48;15.17;;;11.97;;
27728;SDS011;15126;42.186;24.340;2022-08-21T04:11:16;14.07;;;11.67;;
27728;SDS011;15126;42.186;24.340;2022-08-21T04:13:43;16.67;;;12.73;;
27728;SDS011;15126;42.186;24.340;2022-08-21T04:16:10;13.93;;;11.67;;
27728;SDS011;15126;42.186;24.340;2022-08-21T04:18:37;16.37;;;13.27;;
27728;SDS011;15126;42.186;24.340;2022-08-21T04:21:04;16.10;;;14.20;;
27728;SDS011;15126;42.186;24.340;2022-08-21T04:23:34;16.47;;;12.73;;
27728;SDS011;15126;42.186;24.340;2022-08-21T04:26:00;14.97;;;13.53;;
27728;SDS011;15126;42.186;24.340;2022-08-21T04:28:29;18.37;;;14.47;;
27728;SDS011;15126;42.186;24.340;2022-08-21T04:30:55;17.67;;;13.60;;
27728;SDS011;15126;42.186;24.340;2022-08-21T04:33:22;22.97;;;15.07;;
27728;SDS011;15126;42.186;24.340;2022-08-21T04:35:50;15.10;;;13.07;;
27728;SDS011;15126;42.186;24.340;2022-08-21T04:38:17;17.47;;;13.70;;
27728;SDS011;15126;42.186;24.340;2022-08-21T04:40:44;15.10;;;13.50;;
27728;SDS011;15126;42.186;24.340;2022-08-21T04:43:11;14.17;;;12.80;;
27728;SDS011;15126;42.186;24.340;2022-08-21T04:45:40;16.20;;;12.57;;
27728;SDS011;15126;42.186;24.340;2022-08-21T04:48:09;18.93;;;14.57;;
27728;SDS011;15126;42.186;24.340;2022-08-21T04:50:41;16.60;;;13.40;;
27728;SDS011;15126;42.186;24.340;2022-08-21T04:53:12;16.07;;;14.17;;
27728;SDS011;15126;42.186;24.340;2022-08-21T04:55:42;14.30;;;12.77;;
27728;SDS011;15126;42.186;24.340;2022-08-21T04:58:10;18.10;;;13.90;;
27728;SDS011;15126;42.186;24.340;2022-08-21T05:00:40;15.33;;;13.70;;
27728;SDS011;15126;42.186;24.340;2022-08-21T05:03:08;15.27;;;13.57;;
27728;SDS011;15126;42.186;24.340;2022-08-21T05:05:37;15.90;;;13.77;;
27728;SDS011;15126;42.186;24.340;2022-08-21T05:08:06;14.37;;;12.77;;
27728;SDS011;15126;42.186;24.340;2022-08-21T05:10:35;22.83;;;15.07;;
27728;SDS011;15126;42.186;24.340;2022-08-21T05:13:01;17.03;;;14.10;;
27728;SDS011;15126;42.186;24.340;2022-08-21T05:15:29;15.83;;;13.50;;
27728;SDS011;15126;42.186;24.340;2022-08-21T05:17:58;19.77;;;15.00;;
27728;SDS011;15126;42.186;24.340;2022-08-21T05:20:25;16.80;;;14.93;;
27728;SDS011;15126;42.186;24.340;2022-08-21T05:22:51;15.10;;;13.60;;
27728;SDS011;15126;42.186;24.340;2022-08-21T05:25:18;18.37;;;15.03;;
27728;SDS011;15126;42.186;24.340;2022-08-21T05:27:45;16.40;;;14.77;;
27728;SDS011;15126;42.186;24.340;2022-08-21T05:30:12;17.53;;;15.30;;
27728;SDS011;15126;42.186;24.340;2022-08-21T05:32:39;18.07;;;15.93;;
27728;SDS011;15126;42.186;24.340;2022-08-21T05:35:08;19.97;;;17.37;;
27728;SDS011;15126;42.186;24.340;2022-08-21T05:37:36;19.73;;;15.73;;
27728;SDS011;15126;42.186;24.340;2022-08-21T05:40:03;18.23;;;16.53;;
27728;SDS011;15126;42.186;24.340;2022-08-21T05:42:31;20.97;;;15.93;;
27728;SDS011;15126;42.186;24.340;2022-08-21T05:44:58;17.27;;;15.50;;
27728;SDS011;15126;42.186;24.340;2022-08-21T05:47:25;17.13;;;14.90;;
27728;SDS011;15126;42.186;24.340;2022-08-21T05:49:52;16.00;;;14.30;;
27728;SDS011;15126;42.186;24.340;2022-08-21T05:52:20;16.30;;;14.20;;
27728;SDS011;15126;42.186;24.340;2022-08-21T05:54:48;16.03;;;13.90;;
27728;SDS011;15126;42.186;24.340;2022-08-21T05:57:15;15.53;;;13.90;;
27728;SDS011;15126;42.186;24.340;2022-08-21T05:59:42;17.70;;;13.53;;
27728;SDS011;15126;42.186;24.340;2022-08-21T06:02:09;17.07;;;13.97;;
27728;SDS011;15126;42.186;24.340;2022-08-21T06:04:36;14.00;;;12.60;;
27728;SDS011;15126;42.186;24.340;2022-08-21T06:07:03;19.07;;;13.80;;
27728;SDS011;15126;42.186;24.340;2022-08-21T06:09:32;16.17;;;13.90;;
27728;SDS011;15126;42.186;24.340;2022-08-21T06:12:02;16.10;;;14.57;;
27728;SDS011;15126;42.186;24.340;2022-08-21T06:14:30;19.70;;;14.73;;
27728;SDS011;15126;42.186;24.340;2022-08-21T06:17:01;15.40;;;13.80;;
27728;SDS011;15126;42.186;24.340;2022-08-21T06:19:29;15.97;;;14.37;;
27728;SDS011;15126;42.186;24.340;2022-08-21T06:21:56;15.17;;;13.57;;
27728;SDS011;15126;42.186;24.340;2022-08-21T06:24:23;16.30;;;14.70;;
27728;SDS011;15126;42.186;24.340;2022-08-21T06:26:51;19.20;;;14.40;;
27728;SDS011;15126;42.186;24.340;2022-08-21T06:29:18;14.93;;;13.33;;
27728;SDS011;15126;42.186;24.340;2022-08-21T06:31:46;18.77;;;14.37;;
27728;SDS011;15126;42.186;24.340;2022-08-21T06:34:14;16.13;;;14.00;;
27728;SDS011;15126;42.186;24.340;2022-08-21T06:36:41;15.57;;;14.10;;
27728;SDS011;15126;42.186;24.340;2022-08-21T06:39:08;16.87;;;13.63;;
27728;SDS011;15126;42.186;24.340;2022-08-21T06:41:35;15.63;;;14.13;;
27728;SDS011;15126;42.186;24.340;2022-08-21T06:44:04;19.53;;;13.63;;
27728;SDS011;15126;42.186;24.340;2022-08-21T06:46:31;15.90;;;14.00;;
27728;SDS011;15126;42.186;24.340;2022-08-21T06:48:59;14.77;;;13.23;;
27728;SDS011;15126;42.186;24.340;2022-08-21T06:51:25;15.13;;;13.60;;
27728;SDS011;15126;42.186;24.340;2022-08-21T06:53:52;15.73;;;14.20;;
27728;SDS011;15126;42.186;24.340;2022-08-21T06:56:20;16.27;;;13.80;;
27728;SDS011;15126;42.186;24.340;2022-08-21T06:58:47;15.50;;;13.87;;
27728;SDS011;15126;42.186;24.340;2022-08-21T07:01:15;15.83;;;14.33;;
27728;SDS011;15126;42.186;24.340;2022-08-21T07:03:42;15.47;;;12.33;;
27728;SDS011;15126;42.186;24.340;2022-08-21T07:06:10;15.33;;;13.77;;
27728;SDS011;15126;42.186;24.340;2022-08-21T07:08:37;14.30;;;12.90;;
27728;SDS011;15126;42.186;24.340;2022-08-21T07:11:07;15.30;;;12.47;;
27728;SDS011;15126;42.186;24.340;2022-08-21T07:13:39;15.33;;;13.90;;
27728;SDS011;15126;42.186;24.340;2022-08-21T07:16:05;13.73;;;12.20;;
27728;SDS011;15126;42.186;24.340;2022-08-21T07:18:34;18.10;;;13.23;;
27728;SDS011;15126;42.186;24.340;2022-08-21T07:21:01;16.13;;;14.07;;
27728;SDS011;15126;42.186;24.340;2022-08-21T07:23:30;16.77;;;13.63;;
27728;SDS011;15126;42.186;24.340;2022-08-21T07:25:58;15.77;;;14.37;;
27728;SDS011;15126;42.186;24.340;2022-08-21T07:28:25;22.17;;;16.20;;
27728;SDS011;15126;42.186;24.340;2022-08-21T07:30:53;21.33;;;15.53;;
27728;SDS011;15126;42.186;24.340;2022-08-21T07:33:22;24.33;;;15.13;;
27728;SDS011;15126;42.186;24.340;2022-08-21T07:35:51;15.60;;;13.57;;
27728;SDS011;15126;42.186;24.340;2022-08-21T07:38:18;13.90;;;12.70;;
27728;SDS011;15126;42.186;24.340;2022-08-21T07:40:45;17.83;;;14.10;;
27728;SDS011;15126;42.186;24.340;2022-08-21T07:43:13;20.93;;;13.53;;
27728;SDS011;15126;42.186;24.340;2022-08-21T07:45:41;19.33;;;13.73;;
27728;SDS011;15126;42.186;24.340;2022-08-21T07:48:08;15.90;;;14.23;;
27728;SDS011;15126;42.186;24.340;2022-08-21T07:50:36;14.23;;;12.40;;
27728;SDS011;15126;42.186;24.340;2022-08-21T07:53:04;15.87;;;14.27;;
27728;SDS011;15126;42.186;24.340;2022-08-21T07:55:32;17.73;;;14.33;;
27728;SDS011;15126;42.186;24.340;2022-08-21T07:57:59;17.07;;;14.53;;
27728;SDS011;15126;42.186;24.340;2022-08-21T08:00:26;22.77;;;16.03;;
27728;SDS011;15126;42.186;24.340;2022-08-21T08:02:55;20.37;;;17.20;;
27728;SDS011;15126;42.186;24.340;2022-08-21T08:05:23;17.23;;;15.13;;
27728;SDS011;15126;42.186;24.340;2022-08-21T08:07:51;17.57;;;15.80;;
27728;SDS011;15126;42.186;24.340;2022-08-21T08:10:20;18.70;;;14.57;;
27728;SDS011;15126;42.186;24.340;2022-08-21T08:12:48;22.07;;;15.57;;
27728;SDS011;15126;42.186;24.340;2022-08-21T08:15:17;15.77;;;14.27;;
27728;SDS011;15126;42.186;24.340;2022-08-21T08:17:45;18.60;;;15.80;;
27728;SDS011;15126;42.186;24.340;2022-08-21T08:20:13;16.00;;;14.07;;
27728;SDS011;15126;42.186;24.340;2022-08-21T08:22:42;16.57;;;14.97;;
27728;SDS011;15126;42.186;24.340;2022-08-21T08:25:09;19.20;;;17.20;;
27728;SDS011;15126;42.186;24.340;2022-08-21T08:27:39;19.70;;;17.70;;
27728;SDS011;15126;42.186;24.340;2022-08-21T08:30:07;19.83;;;16.77;;
27728;SDS011;15126;42.186;24.340;2022-08-21T08:32:36;19.33;;;15.90;;
27728;SDS011;15126;42.186;24.340;2022-08-21T08:35:04;16.97;;;14.87;;
27728;SDS011;15126;42.186;24.340;2022-08-21T08:37:32;19.57;;;14.07;;
27728;SDS011;15126;42.186;24.340;2022-08-21T08:39:59;16.90;;;15.13;;
27728;SDS011;15126;42.186;24.340;2022-08-21T08:42:27;15.83;;;14.43;;
27728;SDS011;15126;42.186;24.340;2022-08-21T08:44:59;19.20;;;16.73;;
27728;SDS011;15126;42.186;24.340;2022-08-21T08:47:29;18.20;;;16.33;;
27728;SDS011;15126;42.186;24.340;2022-08-21T08:50:00;17.10;;;15.30;;
27728;SDS011;15126;42.186;24.340;2022-08-21T08:52:31;17.47;;;14.67;;
27728;SDS011;15126;42.186;24.340;2022-08-21T08:55:02;16.53;;;14.97;;
27728;SDS011;15126;42.186;24.340;2022-08-21T08:57:32;15.87;;;14.37;;
27728;SDS011;15126;42.186;24.340;2022-08-21T09:00:03;15.83;;;10.87;;
27728;SDS011;15126;42.186;24.340;2022-08-21T09:02:33;13.50;;;12.23;;
27728;SDS011;15126;42.186;24.340;2022-08-21T09:05:00;12.33;;;11.13;;
27728;SDS011;15126;42.186;24.340;2022-08-21T09:07:43;17.37;;;12.53;;
27728;SDS011;15126;42.186;24.340;2022-08-21T09:10:16;19.80;;;12.47;;
27728;SDS011;15126;42.186;24.340;2022-08-21T09:12:49;15.97;;;12.27;;
27728;SDS011;15126;42.186;24.340;2022-08-21T09:15:26;15.30;;;11.80;;
27728;SDS011;15126;42.186;24.340;2022-08-21T09:18:04;14.90;;;13.37;;
27728;SDS011;15126;42.186;24.340;2022-08-21T09:20:52;12.40;;;10.80;;
27728;SDS011;15126;42.186;24.340;2022-08-21T09:23:36;15.37;;;11.17;;
27728;SDS011;15126;42.186;24.340;2022-08-21T09:26:12;17.17;;;13.20;;
27728;SDS011;15126;42.186;24.340;2022-08-21T09:28:40;17.00;;;12.87;;
27728;SDS011;15126;42.186;24.340;2022-08-21T09:31:11;14.87;;;13.37;;
27728;SDS011;15126;42.186;24.340;2022-08-21T09:33:48;14.73;;;13.20;;
27728;SDS011;15126;42.186;24.340;2022-08-21T09:36:22;16.43;;;12.57;;
27728;SDS011;15126;42.186;24.340;2022-08-21T09:38:52;18.57;;;13.77;;
27728;SDS011;15126;42.186;24.340;2022-08-21T09:41:25;15.17;;;12.80;;
27728;SDS011;15126;42.186;24.340;2022-08-21T09:43:53;16.83;;;13.87;;
27728;SDS011;15126;42.186;24.340;2022-08-21T09:46:22;18.57;;;14.40;;
27728;SDS011;15126;42.186;24.340;2022-08-21T09:48:51;18.40;;;15.47;;
27728;SDS011;15126;42.186;24.340;2022-08-21T09:51:20;16.43;;;14.80;;
27728;SDS011;15126;42.186;24.340;2022-08-21T09:53:50;15.70;;;14.07;;
27728;SDS011;15126;42.186;24.340;2022-08-21T09:56:21;21.00;;;13.53;;
27728;SDS011;15126;42.186;24.340;2022-08-21T10:01:59;15.10;;;13.60;;
27728;SDS011;15126;42.186;24.340;2022-08-21T10:04:28;16.30;;;14.63;;
27728;SDS011;15126;42.186;24.340;2022-08-21T10:07:05;18.47;;;15.27;;
27728;SDS011;15126;42.186;24.340;2022-08-21T10:09:34;15.93;;;14.43;;
27728;SDS011;15126;42.186;24.340;2022-08-21T10:12:07;17.17;;;14.83;;
27728;SDS011;15126;42.186;24.340;2022-08-21T10:14:42;18.30;;;14.63;;
27728;SDS011;15126;42.186;24.340;2022-08-21T10:17:20;14.27;;;12.40;;
27728;SDS011;15126;42.186;24.340;2022-08-21T10:19:55;20.07;;;12.70;;
27728;SDS011;15126;42.186;24.340;2022-08-21T10:22:32;14.93;;;11.57;;
27728;SDS011;15126;42.186;24.340;2022-08-21T10:25:09;13.73;;;11.73;;
27728;SDS011;15126;42.186;24.340;2022-08-21T10:27:46;13.53;;;12.13;;
27728;SDS011;15126;42.186;24.340;2022-08-21T10:30:21;16.80;;;12.63;;
27728;SDS011;15126;42.186;24.340;2022-08-21T10:33:11;11.87;;;10.67;;
27728;SDS011;15126;42.186;24.340;2022-08-21T10:35:47;16.43;;;9.40;;
27728;SDS011;15126;42.186;24.340;2022-08-21T10:41:14;11.87;;;10.13;;
27728;SDS011;15126;42.186;24.340;2022-08-21T10:43:52;13.37;;;12.00;;
27728;SDS011;15126;42.186;24.340;2022-08-21T10:46:29;18.47;;;13.50;;
27728;SDS011;15126;42.186;24.340;2022-08-21T10:49:07;11.93;;;10.37;;
27728;SDS011;15126;42.186;24.340;2022-08-21T10:51:46;12.23;;;10.97;;
27728;SDS011;15126;42.186;24.340;2022-08-21T10:54:23;14.50;;;11.27;;
27728;SDS011;15126;42.186;24.340;2022-08-21T10:57:02;12.50;;;11.43;;
27728;SDS011;15126;42.186;24.340;2022-08-21T10:59:34;15.40;;;10.47;;
27728;SDS011;15126;42.186;24.340;2022-08-21T11:02:09;21.20;;;12.10;;
27728;SDS011;15126;42.186;24.340;2022-08-21T11:04:45;18.97;;;12.97;;
27728;SDS011;15126;42.186;24.340;2022-08-21T11:07:20;15.37;;;12.47;;
27728;SDS011;15126;42.186;24.340;2022-08-21T11:09:54;13.90;;;12.37;;
27728;SDS011;15126;42.186;24.340;2022-08-21T11:12:23;18.83;;;13.47;;
27728;SDS011;15126;42.186;24.340;2022-08-21T11:14:55;20.17;;;13.60;;
27728;SDS011;15126;42.186;24.340;2022-08-21T11:17:27;19.43;;;13.87;;
27728;SDS011;15126;42.186;24.340;2022-08-21T11:20:02;14.13;;;12.73;;
27728;SDS011;15126;42.186;24.340;2022-08-21T11:22:35;18.00;;;13.00;;
27728;SDS011;15126;42.186;24.340;2022-08-21T11:25:07;17.97;;;14.03;;
27728;SDS011;15126;42.186;24.340;2022-08-21T11:27:41;16.20;;;14.50;;
27728;SDS011;15126;42.186;24.340;2022-08-21T11:30:11;17.80;;;16.07;;
27728;SDS011;15126;42.186;24.340;2022-08-21T11:32:57;17.33;;;15.43;;
27728;SDS011;15126;42.186;24.340;2022-08-21T11:35:38;17.87;;;16.03;;
27728;SDS011;15126;42.186;24.340;2022-08-21T11:38:20;14.33;;;12.67;;
27728;SDS011;15126;42.186;24.340;2022-08-21T11:41:01;14.43;;;12.83;;
27728;SDS011;15126;42.186;24.340;2022-08-21T11:43:38;18.37;;;12.53;;
27728;SDS011;15126;42.186;24.340;2022-08-21T11:46:12;15.17;;;13.63;;
27728;SDS011;15126;42.186;24.340;2022-08-21T11:48:49;15.47;;;13.20;;
27728;SDS011;15126;42.186;24.340;2022-08-21T11:51:31;15.03;;;13.63;;
27728;SDS011;15126;42.186;24.340;2022-08-21T11:54:03;15.57;;;14.00;;
27728;SDS011;15126;42.186;24.340;2022-08-21T11:56:35;16.87;;;13.27;;
27728;SDS011;15126;42.186;24.340;2022-08-21T11:59:08;15.57;;;13.83;;
27728;SDS011;15126;42.186;24.340;2022-08-21T12:01:38;15.90;;;13.03;;
27728;SDS011;15126;42.186;24.340;2022-08-21T12:04:16;13.37;;;12.17;;
27728;SDS011;15126;42.186;24.340;2022-08-21T12:06:49;14.23;;;12.70;;
27728;SDS011;15126;42.186;24.340;2022-08-21T12:12:03;15.00;;;13.33;;
27728;SDS011;15126;42.186;24.340;2022-08-21T12:14:37;16.57;;;14.80;;
27728;SDS011;15126;42.186;24.340;2022-08-21T12:17:07;19.87;;;14.87;;
27728;SDS011;15126;42.186;24.340;2022-08-21T12:19:43;16.43;;;14.80;;
27728;SDS011;15126;42.186;24.340;2022-08-21T12:22:12;14.63;;;12.00;;
27728;SDS011;15126;42.186;24.340;2022-08-21T12:24:41;14.50;;;12.97;;
27728;SDS011;15126;42.186;24.340;2022-08-21T12:27:21;15.50;;;13.97;;
27728;SDS011;15126;42.186;24.340;2022-08-21T12:29:54;15.87;;;14.47;;
27728;SDS011;15126;42.186;24.340;2022-08-21T12:32:26;14.47;;;13.07;;
27728;SDS011;15126;42.186;24.340;2022-08-21T12:34:55;18.70;;;13.70;;
27728;SDS011;15126;42.186;24.340;2022-08-21T12:37:30;13.93;;;12.63;;
27728;SDS011;15126;42.186;24.340;2022-08-21T12:40:04;13.70;;;11.40;;
27728;SDS011;15126;42.186;24.340;2022-08-21T12:42:38;14.30;;;12.83;;
27728;SDS011;15126;42.186;24.340;2022-08-21T12:45:11;19.10;;;12.80;;
27728;SDS011;15126;42.186;24.340;2022-08-21T12:47:45;15.23;;;11.77;;
27728;SDS011;15126;42.186;24.340;2022-08-21T12:50:19;12.40;;;11.30;;
27728;SDS011;15126;42.186;24.340;2022-08-21T12:52:51;13.57;;;11.13;;
27728;SDS011;15126;42.186;24.340;2022-08-21T12:55:26;13.47;;;12.17;;
27728;SDS011;15126;42.186;24.340;2022-08-21T12:57:54;14.67;;;12.80;;
27728;SDS011;15126;42.186;24.340;2022-08-21T13:00:22;13.33;;;11.93;;
27728;SDS011;15126;42.186;24.340;2022-08-21T13:02:51;13.63;;;12.40;;
27728;SDS011;15126;42.186;24.340;2022-08-21T13:05:21;13.03;;;11.80;;
27728;SDS011;15126;42.186;24.340;2022-08-21T13:07:56;12.77;;;11.33;;
27728;SDS011;15126;42.186;24.340;2022-08-21T13:10:25;11.13;;;10.07;;
27728;SDS011;15126;42.186;24.340;2022-08-21T13:12:55;12.20;;;10.23;;
27728;SDS011;15126;42.186;24.340;2022-08-21T13:15:25;15.57;;;12.00;;
27728;SDS011;15126;42.186;24.340;2022-08-21T13:17:54;12.03;;;10.93;;
27728;SDS011;15126;42.186;24.340;2022-08-21T13:20:28;11.77;;;10.30;;
27728;SDS011;15126;42.186;24.340;2022-08-21T13:22:57;11.50;;;10.40;;
27728;SDS011;15126;42.186;24.340;2022-08-21T13:25:26;12.17;;;10.33;;
27728;SDS011;15126;42.186;24.340;2022-08-21T13:27:59;9.70;;;8.90;;
27728;SDS011;15126;42.186;24.340;2022-08-21T13:30:28;12.67;;;9.40;;
27728;SDS011;15126;42.186;24.340;2022-08-21T13:32:56;9.83;;;8.83;;
27728;SDS011;15126;42.186;24.340;2022-08-21T13:35:26;9.80;;;8.63;;
27728;SDS011;15126;42.186;24.340;2022-08-21T13:37:56;10.50;;;9.50;;
27728;SDS011;15126;42.186;24.340;2022-08-21T13:40:25;12.90;;;9.97;;
27728;SDS011;15126;42.186;24.340;2022-08-21T13:42:55;10.40;;;9.50;;
27728;SDS011;15126;42.186;24.340;2022-08-21T13:45:24;10.27;;;9.27;;
27728;SDS011;15126;42.186;24.340;2022-08-21T13:47:52;11.03;;;9.27;;
27728;SDS011;15126;42.186;24.340;2022-08-21T13:50:21;11.13;;;9.97;;
27728;SDS011;15126;42.186;24.340;2022-08-21T13:53:01;10.93;;;9.83;;
27728;SDS011;15126;42.186;24.340;2022-08-21T13:55:34;12.00;;;10.87;;
27728;SDS011;15126;42.186;24.340;2022-08-21T13:58:04;10.67;;;9.57;;
27728;SDS011;15126;42.186;24.340;2022-08-21T14:00:32;17.30;;;15.20;;
27728;SDS011;15126;42.186;24.340;2022-08-21T14:03:02;16.43;;;13.03;;
27728;SDS011;15126;42.186;24.340;2022-08-21T14:05:33;37.83;;;29.07;;
27728;SDS011;15126;42.186;24.340;2022-08-21T14:08:04;29.77;;;26.30;;
27728;SDS011;15126;42.186;24.340;2022-08-21T14:10:35;26.67;;;23.70;;
27728;SDS011;15126;42.186;24.340;2022-08-21T14:13:07;77.07;;;59.77;;
27728;SDS011;15126;42.186;24.340;2022-08-21T14:15:46;38.07;;;32.93;;
27728;SDS011;15126;42.186;24.340;2022-08-21T14:18:21;38.73;;;30.03;;
27728;SDS011;15126;42.186;24.340;2022-08-21T14:20:50;62.27;;;44.93;;
27728;SDS011;15126;42.186;24.340;2022-08-21T14:23:30;19.33;;;17.30;;
27728;SDS011;15126;42.186;24.340;2022-08-21T14:25:58;23.80;;;21.20;;
27728;SDS011;15126;42.186;24.340;2022-08-21T14:28:28;19.57;;;14.93;;
27728;SDS011;15126;42.186;24.340;2022-08-21T14:30:57;15.70;;;12.00;;
27728;SDS011;15126;42.186;24.340;2022-08-21T14:33:25;16.37;;;13.37;;
27728;SDS011;15126;42.186;24.340;2022-08-21T14:35:54;13.30;;;11.93;;